Carlisle, United Kingdom
Current Conditions -  °F | °C
As of 9:20 AM on Tuesday 21 Oct 2014 (Local Time) from EGNC Reporting Station
Rain Showers Rain Showers  
Wind Chill: 41°   Ceiling: Unl
Heat Index: 48°   Visibility: 6mi
Dew Point: 43°   Wind: 22mph
Humidity: 82%   Direction: 270°W
Pressure: 29.35"   Gusts: NA
Location:  54.9°N, 2.93°W
Report Text: EGNC 210820Z 27019KT 9999 VCSH FEW016 SCT020 09/06 Q0994
Loading
Personal Weather Stations






























Interactive Weather Map
Tropical Storm Tracking
New forecast layout! Learn more

10-Day Weather Forecast

Advertisements
Track Severe Weather on mobile